Time;durP1;ratioP1;P1;durP2;ratioP2;P2;SDS_P1;SDS_P2;PMS_P1;PMS_P2;Temp;Humidity;BMP_temperature;BMP_pressure;BME280_temperature;BME280_humidity;BME280_pressure;Samples;Min_cycle;Max_cycle;Signal;HPM_P1;HPM_P2
2023/05/25 00:00:19;;;;;;;14.48;4.70;;;9.20;99.90;;;;;;5012210;28;20570;-35
2023/05/25 00:02:45;;;;;;;8.15;4.53;;;9.20;99.90;;;;;;5010594;28;20054;-35
2023/05/25 00:05:11;;;;;;;9.05;3.95;;;9.20;99.90;;;;;;5026057;28;20041;-35
2023/05/25 00:07:37;;;;;;;8.95;4.30;;;9.10;99.90;;;;;;5010033;28;20495;-35
2023/05/25 00:10:05;;;;;;;11.00;5.40;;;9.10;99.90;;;;;;5026719;28;20063;-35
2023/05/25 00:12:32;;;;;;;9.48;4.30;;;9.20;99.90;;;;;;5042388;28;20038;-35
2023/05/25 00:14:57;;;;;;;12.88;5.35;;;9.20;99.90;;;;;;5027871;28;20075;-35
2023/05/25 00:17:23;;;;;;;12.55;4.68;;;9.20;99.90;;;;;;5028001;28;20429;-35
2023/05/25 00:19:49;;;;;;;14.60;4.40;;;9.10;99.90;;;;;;5027971;28;20068;-35
2023/05/25 00:22:16;;;;;;;11.98;4.65;;;9.20;99.90;;;;;;5009916;28;20046;-35
2023/05/25 00:24:42;;;;;;;14.15;4.93;;;9.20;99.90;;;;;;5026335;28;20057;-35
2023/05/25 00:27:08;;;;;;;10.55;4.38;;;9.10;99.90;;;;;;5032705;28;20241;-35
2023/05/25 00:29:34;;;;;;;12.80;4.90;;;9.10;99.90;;;;;;5030624;28;20037;-35
2023/05/25 00:32:01;;;;;;;12.25;4.38;;;9.10;99.90;;;;;;5027757;28;20147;-35
2023/05/25 00:34:26;;;;;;;9.00;4.25;;;9.00;99.90;;;;;;5010287;28;20041;-35
2023/05/25 00:36:53;;;;;;;9.68;4.50;;;9.00;99.90;;;;;;5026371;28;20653;-35
2023/05/25 00:39:19;;;;;;;10.15;4.00;;;9.00;99.90;;;;;;5026368;28;20057;-35
2023/05/25 00:41:47;;;;;;;13.55;4.75;;;8.90;99.90;;;;;;5027113;28;20120;-35
2023/05/25 00:44:13;;;;;;;;;;;8.90;99.90;;;;;;5027105;28;20125;-35
2023/05/25 00:46:50;;;;;;;10.00;4.82;;;8.80;99.90;;;;;;5025636;28;19927;-35
2023/05/25 00:49:21;;;;;;;11.02;5.32;;;8.80;99.90;;;;;;5027202;28;20045;-35
2023/05/25 00:51:48;;;;;;;14.70;5.03;;;8.70;99.90;;;;;;5027330;28;20577;-35
2023/05/25 00:54:15;;;;;;;12.80;4.45;;;8.70;99.90;;;;;;5024494;28;20053;-35
2023/05/25 00:56:45;;;;;;;7.97;4.55;;;8.70;99.90;;;;;;5025756;28;20048;-35
2023/05/25 00:59:19;;;;;;;10.35;5.25;;;8.70;99.90;;;;;;5025790;28;20087;-35
2023/05/25 01:01:46;;;;;;;10.48;4.82;;;8.70;99.90;;;;;;5024038;28;20124;-35
2023/05/25 01:04:14;;;;;;;11.65;5.30;;;8.70;99.90;;;;;;5027030;28;20033;-35
2023/05/25 01:06:46;;;;;;;8.93;5.20;;;8.70;99.90;;;;;;5025032;28;20038;-35
2023/05/25 01:09:14;;;;;;;12.10;4.95;;;8.70;99.90;;;;;;5023755;28;20063;-35
2023/05/25 01:11:43;;;;;;;12.55;5.57;;;8.80;99.90;;;;;;5026488;28;20135;-35
2023/05/25 01:14:09;;;;;;;9.73;4.93;;;8.80;99.90;;;;;;5026720;28;20069;-35
2023/05/25 01:16:36;;;;;;;10.80;4.55;;;8.80;99.90;;;;;;5027342;28;20046;-35
2023/05/25 01:19:03;;;;;;;9.07;4.43;;;8.80;99.90;;;;;;5026700;28;20049;-35
2023/05/25 01:21:56;;;;;;;10.93;4.63;;;8.80;99.90;;;;;;5007600;28;20136;-35
2023/05/25 01:24:41;;;;;;;12.60;4.63;;;8.70;99.90;;;;;;5023797;28;20293;-35
2023/05/25 01:27:14;;;;;;;12.30;5.28;;;8.60;99.90;;;;;;5013536;28;20037;-35
2023/05/25 01:29:44;;;;;;;13.63;5.18;;;8.60;99.90;;;;;;5023064;28;20415;-35
2023/05/25 01:32:11;;;;;;;13.23;5.53;;;8.70;99.90;;;;;;5039928;28;20111;-35
2023/05/25 01:34:38;;;;;;;;;;;8.70;99.90;;;;;;5026350;28;20430;-35
2023/05/25 01:37:05;;;;;;;10.95;5.15;;;8.80;99.90;;;;;;5023111;28;20338;-35
2023/05/25 01:39:30;;;;;;;10.30;5.40;;;8.80;99.90;;;;;;5043315;28;20098;-35
2023/05/25 01:41:56;;;;;;;14.50;5.88;;;8.80;99.90;;;;;;5040269;28;20188;-35
2023/05/25 01:44:23;;;;;;;9.85;5.55;;;8.80;99.90;;;;;;5024314;28;20037;-35
2023/05/25 01:47:04;;;;;;;15.93;5.53;;;8.80;99.90;;;;;;5026018;28;20454;-35
2023/05/25 01:49:30;;;;;;;10.63;5.25;;;8.70;99.90;;;;;;5018197;28;20270;-35
2023/05/25 01:52:25;;;;;;;15.15;5.53;;;8.70;99.90;;;;;;5022898;28;20076;-35
2023/05/25 01:54:56;;;;;;;8.98;5.20;;;8.70;99.90;;;;;;5017412;28;20057;-35
2023/05/25 01:57:23;;;;;;;14.00;6.00;;;8.70;99.90;;;;;;5024311;28;20055;-35
2023/05/25 01:59:54;;;;;;;16.48;5.38;;;8.70;99.90;;;;;;5026050;28;20107;-35
2023/05/25 02:02:20;;;;;;;17.98;6.35;;;8.70;99.90;;;;;;5007583;28;20048;-35
2023/05/25 02:04:47;;;;;;;11.63;5.85;;;8.80;99.90;;;;;;5007371;28;20038;-35
2023/05/25 02:07:13;;;;;;;15.10;5.50;;;8.80;99.90;;;;;;5022627;28;20034;-35
2023/05/25 02:09:39;;;;;;;12.02;6.10;;;8.80;99.90;;;;;;5020938;28;20403;-35
2023/05/25 02:12:05;;;;;;;11.60;6.10;;;8.80;99.90;;;;;;5024005;28;20364;-35
2023/05/25 02:14:31;;;;;;;10.82;5.53;;;8.80;99.90;;;;;;5025633;28;20041;-35
2023/05/25 02:17:00;;;;;;;12.75;6.25;;;8.80;99.90;;;;;;5007377;28;20920;-35
2023/05/25 02:19:27;;;;;;;14.00;5.85;;;8.80;99.90;;;;;;5021310;28;20691;-35
2023/05/25 02:21:53;;;;;;;8.73;5.43;;;8.80;99.90;;;;;;5022269;28;20038;-35
2023/05/25 02:24:19;;;;;;;13.52;5.72;;;8.70;99.90;;;;;;5022315;28;20067;-35
2023/05/25 02:26:44;;;;;;;14.38;6.30;;;8.70;99.90;;;;;;5006157;28;20483;-35
2023/05/25 02:29:10;;;;;;;12.30;5.85;;;8.70;99.90;;;;;;5020330;28;20091;-35
2023/05/25 02:31:36;;;;;;;15.55;6.70;;;8.70;99.90;;;;;;5028103;28;20452;-35
2023/05/25 02:34:02;;;;;;;11.10;5.60;;;8.70;99.90;;;;;;5024823;28;20076;-35
2023/05/25 02:36:28;;;;;;;12.45;6.20;;;8.80;99.90;;;;;;5004881;28;20049;-35
2023/05/25 02:38:53;;;;;;;12.50;6.18;;;8.70;99.90;;;;;;5019681;28;20190;-35
2023/05/25 02:41:20;;;;;;;13.20;6.55;;;8.80;99.90;;;;;;5024455;28;20492;-35
2023/05/25 02:43:45;;;;;;;11.27;5.82;;;8.80;99.90;;;;;;5007132;28;20131;-35
2023/05/25 02:46:11;;;;;;;9.73;5.68;;;8.90;99.90;;;;;;4998709;28;20742;-35
2023/05/25 02:48:37;;;;;;;15.40;6.00;;;8.80;99.90;;;;;;5024500;28;20042;-35
2023/05/25 02:51:03;;;;;;;15.80;6.30;;;8.80;99.90;;;;;;5020848;28;20041;-35
2023/05/25 02:53:29;;;;;;;14.48;6.05;;;8.90;99.90;;;;;;5020412;28;20083;-35
2023/05/25 02:55:55;;;;;;;14.00;6.25;;;8.90;99.90;;;;;;5023870;28;20041;-35
2023/05/25 02:58:21;;;;;;;14.07;6.70;;;8.90;99.90;;;;;;5024650;28;20090;-35
2023/05/25 03:00:48;;;;;;;11.45;5.82;;;8.90;99.90;;;;;;5040511;28;20041;-35
2023/05/25 03:03:14;;;;;;;11.05;5.63;;;8.80;99.90;;;;;;5026056;28;20045;-35
2023/05/25 03:05:39;;;;;;;16.20;7.25;;;8.80;99.90;;;;;;5025193;28;20507;-35
2023/05/25 03:08:05;;;;;;;12.25;6.47;;;8.70;99.90;;;;;;5022921;28;20033;-35
2023/05/25 03:10:31;;;;;;;15.98;5.70;;;8.70;99.90;;;;;;5022428;28;20049;-35
2023/05/25 03:12:57;;;;;;;15.13;5.88;;;8.70;99.90;;;;;;5024039;28;20313;-35
2023/05/25 03:15:23;;;;;;;13.40;6.45;;;8.60;99.90;;;;;;5024358;28;20550;-35
2023/05/25 03:17:49;;;;;;;14.27;5.63;;;8.60;99.90;;;;;;5024477;28;20596;-35
2023/05/25 03:20:15;;;;;;;16.58;6.38;;;8.60;99.90;;;;;;5039594;28;20106;-35
2023/05/25 03:22:42;;;;;;;13.88;6.30;;;8.60;99.90;;;;;;5024819;28;20042;-35
2023/05/25 03:25:11;;;;;;;12.07;6.18;;;8.60;99.90;;;;;;5024455;28;20033;-35
2023/05/25 03:27:37;;;;;;;12.55;6.35;;;8.50;99.90;;;;;;5025445;28;20130;-35
2023/05/25 03:30:04;;;;;;;9.20;5.73;;;8.60;99.90;;;;;;5037928;28;20501;-35
2023/05/25 03:32:31;;;;;;;13.20;6.13;;;8.60;99.90;;;;;;5028206;28;20048;-35
2023/05/25 03:34:57;;;;;;;10.73;5.70;;;8.50;99.90;;;;;;5008599;28;20403;-35
2023/05/25 03:37:23;;;;;;;9.80;5.18;;;8.50;99.90;;;;;;5028621;28;20052;-35
2023/05/25 03:39:48;;;;;;;11.05;5.72;;;8.50;99.90;;;;;;5028778;28;20687;-35
2023/05/25 03:42:14;;;;;;;11.18;5.35;;;8.40;99.90;;;;;;5028106;28;20125;-35
2023/05/25 03:44:40;;;;;;;13.82;5.70;;;8.40;99.90;;;;;;5028509;28;20121;-35
2023/05/25 03:47:05;;;;;;;9.57;6.07;;;8.40;99.90;;;;;;5008097;28;20069;-35
2023/05/25 03:49:32;;;;;;;12.13;5.63;;;8.40;99.90;;;;;;5026057;28;20076;-35
2023/05/25 03:52:00;;;;;;;11.02;5.07;;;8.30;99.90;;;;;;5010768;28;20381;-35
2023/05/25 03:54:26;;;;;;;13.48;5.45;;;8.40;99.90;;;;;;5040714;28;20095;-35
2023/05/25 03:56:52;;;;;;;10.65;5.63;;;8.30;99.90;;;;;;5025944;28;20033;-35
2023/05/25 03:59:18;;;;;;;10.77;5.03;;;8.20;99.90;;;;;;5010391;28;20060;-35
2023/05/25 04:01:44;;;;;;;8.75;5.20;;;8.20;99.90;;;;;;5028074;28;20049;-35
2023/05/25 04:04:10;;;;;;;11.80;5.45;;;8.10;99.90;;;;;;5025850;28;20060;-35
2023/05/25 04:06:36;;;;;;;9.75;5.25;;;8.10;99.90;;;;;;5027275;28;20076;-35
2023/05/25 04:09:03;;;;;;;10.07;5.93;;;8.20;99.90;;;;;;5007762;28;20041;-35
2023/05/25 04:11:29;;;;;;;13.18;6.90;;;8.20;99.90;;;;;;5027990;28;20049;-35
2023/05/25 04:13:55;;;;;;;11.52;6.00;;;8.20;99.90;;;;;;5026677;28;20072;-35
2023/05/25 04:16:22;;;;;;;12.88;6.20;;;8.30;99.90;;;;;;5027917;28;20419;-35
2023/05/25 04:18:48;;;;;;;9.27;6.07;;;8.30;99.90;;;;;;5026831;28;20052;-35
2023/05/25 04:21:15;;;;;;;10.63;5.60;;;8.40;99.90;;;;;;5027442;28;20049;-35
2023/05/25 04:23:42;;;;;;;12.88;6.00;;;8.50;99.90;;;;;;5026723;28;20380;-35
2023/05/25 04:26:09;;;;;;;17.90;6.18;;;8.50;99.90;;;;;;5027774;28;20124;-35
2023/05/25 04:28:35;;;;;;;11.38;6.10;;;8.50;99.90;;;;;;5029375;28;20045;-35
2023/05/25 04:31:02;;;;;;;12.13;6.37;;;8.50;99.90;;;;;;5009846;28;20068;-35
2023/05/25 04:33:28;;;;;;;14.27;6.70;;;8.60;99.90;;;;;;5021611;28;20460;-35
2023/05/25 04:35:58;;;;;;;11.90;5.93;;;8.60;99.90;;;;;;5019866;28;20500;-35
2023/05/25 04:38:24;;;;;;;11.00;6.13;;;8.70;99.90;;;;;;5025028;28;20046;-35
2023/05/25 04:40:52;;;;;;;11.20;6.40;;;8.80;99.90;;;;;;5024802;28;20037;-34
2023/05/25 04:43:19;;;;;;;14.98;5.72;;;8.90;99.90;;;;;;5023323;28;20088;-34
2023/05/25 04:45:45;;;;;;;13.50;6.10;;;9.00;99.90;;;;;;5025795;28;20045;-35
2023/05/25 04:48:12;;;;;;;14.68;6.38;;;9.00;99.90;;;;;;5041607;28;20055;-34
2023/05/25 04:50:41;;;;;;;15.13;6.32;;;9.10;99.90;;;;;;5026607;28;20049;-34
2023/05/25 04:53:07;;;;;;;10.18;6.25;;;9.20;99.90;;;;;;5009077;28;20117;-35
2023/05/25 04:55:33;;;;;;;12.50;5.75;;;9.30;99.90;;;;;;5022846;28;20391;-34
2023/05/25 04:58:00;;;;;;;11.93;6.20;;;9.40;99.90;;;;;;5007140;28;20045;-34
2023/05/25 05:00:30;;;;;;;13.93;5.95;;;9.40;99.90;;;;;;5026042;28;20042;-34
2023/05/25 05:02:56;;;;;;;14.43;6.28;;;9.60;99.90;;;;;;5000424;28;20045;-35
2023/05/25 05:05:22;;;;;;;13.52;6.47;;;9.60;99.90;;;;;;5026784;28;20045;-35
2023/05/25 05:07:50;;;;;;;14.18;5.50;;;9.80;99.90;;;;;;5003589;28;20116;-34
2023/05/25 05:10:17;;;;;;;12.82;5.97;;;9.90;99.90;;;;;;5025475;28;20524;-35
2023/05/25 05:12:42;;;;;;;10.63;6.25;;;9.90;99.90;;;;;;5025968;28;20131;-34
2023/05/25 05:15:11;;;;;;;9.18;5.35;;;10.10;99.90;;;;;;5018956;28;20061;-35
2023/05/25 05:17:37;;;;;;;12.90;6.18;;;10.20;99.90;;;;;;5037016;28;20445;-35
2023/05/25 05:20:04;;;;;;;11.00;5.70;;;10.30;99.90;;;;;;5023911;28;20084;-34
2023/05/25 05:22:31;;;;;;;13.30;5.83;;;10.50;99.90;;;;;;5019898;28;20060;-34
2023/05/25 05:24:58;;;;;;;13.70;5.55;;;10.80;99.90;;;;;;5005432;28;20040;-35
2023/05/25 05:27:25;;;;;;;11.13;5.50;;;10.80;99.90;;;;;;5023058;28;20044;-35
2023/05/25 05:29:52;;;;;;;9.73;4.75;;;11.00;99.90;;;;;;5025352;28;20065;-35
2023/05/25 05:32:18;;;;;;;12.90;5.00;;;11.20;99.90;;;;;;5021691;28;20064;-35
2023/05/25 05:34:43;;;;;;;8.23;4.05;;;11.30;99.90;;;;;;5022593;28;20041;-35
2023/05/25 05:37:09;;;;;;;11.02;4.75;;;11.40;99.90;;;;;;5012409;28;20068;-35
2023/05/25 05:39:36;;;;;;;9.35;4.32;;;11.50;99.90;;;;;;5025411;28;20041;-35
2023/05/25 05:42:03;;;;;;;7.43;3.28;;;11.60;99.90;;;;;;5015620;28;20099;-35
2023/05/25 05:44:29;;;;;;;11.18;3.75;;;11.60;99.90;;;;;;5007287;28;20342;-35
2023/05/25 05:46:59;;;;;;;10.38;3.60;;;11.60;99.90;;;;;;5007956;28;20442;-35
2023/05/25 05:49:31;;;;;;;10.90;3.50;;;11.70;99.90;;;;;;5023956;28;20304;-35
2023/05/25 05:51:57;;;;;;;8.63;2.75;;;11.80;99.90;;;;;;5019884;28;20033;-34
2023/05/25 05:54:23;;;;;;;7.88;2.60;;;11.80;99.90;;;;;;5022586;28;20033;-35
2023/05/25 05:56:50;;;;;;;8.45;3.20;;;11.80;99.90;;;;;;5021886;28;20142;-35
2023/05/25 05:59:16;;;;;;;9.40;2.33;;;11.90;99.90;;;;;;5005638;28;20056;-34
2023/05/25 06:01:41;;;;;;;11.00;3.15;;;11.90;99.90;;;;;;5025287;28;20049;-35
2023/05/25 06:04:08;;;;;;;8.60;2.95;;;12.00;99.90;;;;;;5019787;28;20029;-35
2023/05/25 06:06:34;;;;;;;11.10;2.70;;;12.00;99.90;;;;;;5023086;28;20033;-34
2023/05/25 06:09:02;;;;;;;9.98;3.03;;;12.00;99.90;;;;;;5020147;28;20044;-35
2023/05/25 06:11:29;;;;;;;9.88;2.70;;;;;;;;;;5018070;28;20046;-35
2023/05/25 06:13:54;;;;;;;8.00;2.50;;;12.30;99.90;;;;;;5038749;28;20045;-35
2023/05/25 06:16:20;;;;;;;10.35;2.35;;;12.40;99.90;;;;;;5023364;28;20285;-35
2023/05/25 06:18:46;;;;;;;10.68;2.83;;;;;;;;;;5024780;28;20064;-34
2023/05/25 06:21:12;;;;;;;9.77;3.00;;;12.50;99.90;;;;;;5007990;28;20041;-34
2023/05/25 06:23:38;;;;;;;13.18;2.92;;;12.70;99.90;;;;;;5023716;28;20498;-35
2023/05/25 06:26:05;;;;;;;12.95;3.70;;;12.60;99.90;;;;;;5013575;28;20048;-34
2023/05/25 06:28:31;;;;;;;9.60;3.22;;;12.80;99.90;;;;;;5023763;28;20159;-34
2023/05/25 06:30:57;;;;;;;7.22;2.03;;;12.70;99.90;;;;;;5019721;28;20040;-34
2023/05/25 06:33:23;;;;;;;18.35;4.10;;;12.80;99.90;;;;;;5006245;28;20099;-35
2023/05/25 06:35:49;;;;;;;8.73;2.92;;;12.90;99.90;;;;;;5022250;28;20140;-34
2023/05/25 06:38:15;;;;;;;9.90;3.03;;;13.30;99.90;;;;;;5038294;28;20045;-34
2023/05/25 06:40:41;;;;;;;10.10;2.60;;;13.20;99.90;;;;;;5023459;28;20095;-35
2023/05/25 06:43:07;;;;;;;8.07;2.97;;;13.30;99.90;;;;;;5021989;28;20419;-35
2023/05/25 06:45:32;;;;;;;12.48;3.67;;;13.50;99.90;;;;;;5023465;28;20153;-34
2023/05/25 06:47:58;;;;;;;12.05;3.55;;;13.50;99.90;;;;;;5025423;28;20049;-34
2023/05/25 06:50:24;;;;;;;13.18;3.45;;;13.50;99.90;;;;;;5022617;28;20037;-34
2023/05/25 06:52:50;;;;;;;11.68;2.95;;;13.60;99.90;;;;;;5023176;28;20049;-34
2023/05/25 06:55:16;;;;;;;10.25;2.90;;;13.70;99.90;;;;;;5021073;28;20076;-35
2023/05/25 06:57:45;;;;;;;11.73;3.70;;;14.30;99.90;;;;;;5020941;28;20530;-35
2023/05/25 07:00:11;;;;;;;18.42;4.57;;;14.60;99.90;;;;;;5023020;28;20472;-35
2023/05/25 07:02:38;;;;;;;10.13;2.80;;;14.80;99.90;;;;;;5021518;28;20052;-35
2023/05/25 07:05:05;;;;;;;14.45;3.35;;;14.80;99.90;;;;;;5023133;28;20042;-35
2023/05/25 07:07:31;;;;;;;10.55;3.05;;;15.20;99.90;;;;;;5007526;28;20488;-35
2023/05/25 07:09:57;;;;;;;13.23;3.38;;;15.70;99.90;;;;;;5024363;28;20064;-35
2023/05/25 07:12:23;;;;;;;11.73;3.08;;;16.60;99.90;;;;;;5023798;28;20409;-35
2023/05/25 07:14:49;;;;;;;15.25;3.72;;;17.50;99.90;;;;;;5025556;28;20119;-35
2023/05/25 07:17:15;;;;;;;14.25;3.53;;;18.50;99.90;;;;;;5005159;28;20475;-35
2023/05/25 07:19:42;;;;;;;11.70;3.75;;;19.10;99.90;;;;;;5024358;28;20540;-35
2023/05/25 07:22:11;;;;;;;11.05;3.50;;;19.40;99.90;;;;;;5023298;28;20045;-35
2023/05/25 07:24:37;;;;;;;13.75;2.83;;;19.80;99.90;;;;;;5023392;28;20077;-35
2023/05/25 07:27:03;;;;;;;11.23;3.28;;;20.30;99.90;;;;;;5004691;28;20084;-35
2023/05/25 07:29:29;;;;;;;12.05;2.85;;;20.70;99.90;;;;;;5022966;28;20523;-35
2023/05/25 07:31:55;;;;;;;12.35;3.85;;;21.00;99.90;;;;;;5024373;28;20123;-35
2023/05/25 07:34:21;;;;;;;14.13;3.65;;;21.10;99.90;;;;;;5006631;28;20056;-35
2023/05/25 07:36:46;;;;;;;13.57;3.42;;;21.00;99.90;;;;;;5024451;28;20126;-35
2023/05/25 07:39:12;;;;;;;13.23;3.72;;;19.30;99.90;;;;;;5023579;28;20119;-35
2023/05/25 07:41:38;;;;;;;10.10;2.90;;;17.80;99.90;;;;;;5023526;28;20136;-35
2023/05/25 07:44:04;;;;;;;10.48;2.67;;;16.90;99.90;;;;;;5005495;28;20038;-35
2023/05/25 07:46:30;;;;;;;12.63;3.67;;;16.30;99.90;;;;;;5040289;28;20285;-34
2023/05/25 07:48:58;;;;;;;15.05;3.53;;;15.80;99.90;;;;;;5022262;28;20473;-35
2023/05/25 07:51:25;;;;;;;13.25;3.15;;;16.00;99.90;;;;;;5022113;28;20052;-35
2023/05/25 07:53:54;;;;;;;15.40;3.72;;;17.00;99.90;;;;;;5021102;28;20076;-35
2023/05/25 07:56:20;;;;;;;13.93;3.35;;;17.90;99.90;;;;;;5023069;28;20049;-35
2023/05/25 07:58:45;;;;;;;10.45;3.00;;;18.80;99.90;;;;;;5038549;28;20037;-35
2023/05/25 08:01:11;;;;;;;10.00;3.42;;;19.40;99.90;;;;;;5038574;28;20061;-35
2023/05/25 08:03:38;;;;;;;15.82;3.75;;;20.00;99.90;;;;;;5024668;28;20580;-35
2023/05/25 08:06:04;;;;;;;10.13;3.10;;;20.40;99.90;;;;;;5023694;28;20079;-35
2023/05/25 08:08:30;;;;;;;13.50;3.30;;;20.60;93.80;;;;;;5023307;28;20052;-35
2023/05/25 08:10:56;;;;;;;13.30;3.22;;;21.00;92.90;;;;;;5022511;28;20057;-35
2023/05/25 08:13:21;;;;;;;13.65;3.40;;;21.10;91.30;;;;;;5024426;28;20399;-35
2023/05/25 08:15:48;;;;;;;10.95;3.17;;;20.90;89.00;;;;;;5022824;28;20033;-34
2023/05/25 08:18:14;;;;;;;13.85;2.75;;;20.50;88.80;;;;;;5027247;28;20502;-35
2023/05/25 08:20:40;;;;;;;13.43;3.10;;;19.60;91.30;;;;;;5013466;28;20046;-35
2023/05/25 08:23:07;;;;;;;11.13;3.13;;;18.40;92.40;;;;;;5023706;28;20038;-34
2023/05/25 08:25:32;;;;;;;15.53;3.37;;;17.30;99.60;;;;;;5027139;28;20495;-35
2023/05/25 08:27:58;;;;;;;14.05;3.60;;;16.80;99.90;;;;;;5027143;28;20128;-35
2023/05/25 08:30:24;;;;;;;8.50;2.85;;;16.70;99.90;;;;;;5009186;28;20103;-34
2023/05/25 08:32:50;;;;;;;13.95;3.53;;;16.40;99.90;;;;;;5028112;28;20453;-34
2023/05/25 08:35:16;;;;;;;13.10;2.83;;;16.40;99.90;;;;;;5042286;28;20112;-35
2023/05/25 08:37:42;;;;;;;13.80;3.42;;;16.50;99.90;;;;;;5026900;28;20056;-35
2023/05/25 08:40:21;;;;;;;12.00;3.20;;;16.30;99.90;;;;;;5027177;28;20574;-34
2023/05/25 08:42:47;;;;;;;14.00;3.17;;;16.30;99.90;;;;;;5024925;28;20661;-34
2023/05/25 08:45:13;;;;;;;12.35;3.30;;;17.10;99.90;;;;;;5010378;28;20033;-35
2023/05/25 08:47:43;;;;;;;11.43;3.47;;;17.90;99.90;;;;;;5026439;28;20432;-35
2023/05/25 08:50:11;;;;;;;11.63;2.63;;;18.50;99.90;;;;;;5009439;28;20079;-34
2023/05/25 08:52:39;;;;;;;10.25;3.20;;;18.00;99.90;;;;;;5026570;28;20221;-34
2023/05/25 08:55:08;;;;;;;11.70;3.33;;;17.80;99.90;;;;;;5027053;28;20384;-34
2023/05/25 08:57:46;;;;;;;10.18;2.92;;;18.10;99.90;;;;;;5026106;28;20071;-35
2023/05/25 09:00:14;;;;;;;12.43;3.15;;;18.50;99.90;;;;;;5025611;28;20048;-34
2023/05/25 09:02:58;;;;;;;11.20;3.30;;;18.90;99.90;;;;;;5024975;28;20049;-35
2023/05/25 09:05:25;;;;;;;11.05;3.40;;;19.20;99.90;;;;;;5026989;28;20111;-34
2023/05/25 09:07:53;;;;;;;12.43;3.10;;;19.40;97.40;;;;;;5026721;28;20045;-34
2023/05/25 09:10:21;;;;;;;10.50;2.88;;;19.50;96.50;;;;;;5003001;28;20104;-35
2023/05/25 09:12:50;;;;;;;10.68;2.42;;;19.50;95.70;;;;;;5005728;28;20129;-34
2023/05/25 09:15:17;;;;;;;12.32;3.40;;;18.40;91.90;;;;;;5006322;28;20546;-34
2023/05/25 09:17:43;;;;;;;12.80;3.35;;;17.30;95.60;;;;;;5006795;28;20496;-34
2023/05/25 09:20:15;;;;;;;9.77;2.78;;;16.60;99.90;;;;;;5006264;28;20042;-34
2023/05/25 09:22:41;;;;;;;15.95;3.10;;;16.30;99.90;;;;;;5004362;28;20281;-34
2023/05/25 09:25:09;;;;;;;10.90;3.22;;;16.30;99.90;;;;;;5003776;28;20481;-34
2023/05/25 09:27:36;;;;;;;13.25;3.63;;;16.50;99.90;;;;;;5004231;28;20057;-34
2023/05/25 09:30:04;;;;;;;11.55;3.00;;;16.70;99.90;;;;;;5019676;28;20508;-34
2023/05/25 09:32:30;;;;;;;11.15;3.13;;;16.60;99.90;;;;;;5006231;28;20042;-34
2023/05/25 09:35:06;;;;;;;10.10;2.88;;;16.40;99.90;;;;;;5005929;28;20077;-34
2023/05/25 09:37:32;;;;;;;12.48;3.35;;;15.90;99.90;;;;;;5005999;28;20132;-34
2023/05/25 09:39:58;;;;;;;16.60;3.45;;;15.80;99.90;;;;;;5021556;28;20117;-34
2023/05/25 09:42:23;;;;;;;13.68;3.35;;;15.90;99.90;;;;;;5005416;28;20119;-34
2023/05/25 09:44:49;;;;;;;14.60;3.53;;;15.70;99.90;;;;;;5006258;28;20401;-34
2023/05/25 09:47:16;;;;;;;13.35;3.28;;;15.60;99.90;;;;;;5004993;28;20037;-34
2023/05/25 09:49:46;;;;;;;9.45;3.45;;;15.70;99.90;;;;;;5006357;28;20100;-34
2023/05/25 09:52:13;;;;;;;9.57;2.70;;;16.00;99.90;;;;;;5006294;28;20068;-34
2023/05/25 09:54:42;;;;;;;;;;;16.30;99.90;;;;;;5005797;28;20081;-34
2023/05/25 09:57:12;;;;;;;14.65;3.70;;;16.40;99.90;;;;;;5005539;28;19929;-34
2023/05/25 09:59:37;;;;;;;14.57;3.40;;;16.60;99.90;;;;;;5005696;28;20110;-34
2023/05/25 10:02:04;;;;;;;13.00;3.42;;;16.50;99.90;;;;;;5005029;28;20068;-34
2023/05/25 10:04:31;;;;;;;11.18;3.35;;;16.30;99.90;;;;;;5005817;28;20436;-34
2023/05/25 10:06:58;;;;;;;13.63;3.50;;;16.00;99.90;;;;;;5005745;28;20038;-34
2023/05/25 10:09:27;;;;;;;12.68;4.10;;;15.70;99.90;;;;;;5005452;28;20037;-34
2023/05/25 10:11:55;;;;;;;9.45;3.33;;;15.70;99.90;;;;;;5024505;28;20131;-34
2023/05/25 10:14:29;;;;;;;14.23;3.80;;;15.60;99.90;;;;;;5041008;28;20045;-34
2023/05/25 10:17:00;;;;;;;12.07;3.08;;;15.60;99.90;;;;;;5025575;28;20037;-34
2023/05/25 10:19:41;;;;;;;12.25;3.25;;;15.60;99.90;;;;;;5007371;28;20376;-34
2023/05/25 10:22:40;;;;;;;13.55;3.03;;;16.00;99.90;;;;;;5025451;28;20052;-34
2023/05/25 10:25:08;;;;;;;14.52;3.53;;;16.20;99.90;;;;;;5021477;28;20049;-34
2023/05/25 10:27:39;;;;;;;12.13;3.40;;;16.20;99.90;;;;;;5024782;28;20044;-34
2023/05/25 10:30:07;;;;;;;13.18;3.28;;;16.30;99.90;;;;;;5024069;28;20571;-34
2023/05/25 10:32:35;;;;;;;11.55;2.80;;;16.40;99.90;;;;;;5025263;28;20045;-35
2023/05/25 10:35:03;;;;;;;13.95;3.00;;;16.60;99.90;;;;;;5024967;28;20037;-34
2023/05/25 10:37:31;;;;;;;11.70;3.65;;;16.60;99.90;;;;;;5023127;28;20061;-34
2023/05/25 10:39:57;;;;;;;13.10;3.10;;;16.70;99.90;;;;;;5005702;28;20112;-34
2023/05/25 10:42:23;;;;;;;16.10;3.45;;;16.50;99.90;;;;;;5039532;28;20396;-34
2023/05/25 10:44:49;;;;;;;11.30;2.97;;;16.30;99.90;;;;;;5022175;28;20041;-34
2023/05/25 10:47:16;;;;;;;10.82;3.20;;;16.30;99.90;;;;;;5022816;28;20173;-34
2023/05/25 10:49:52;;;;;;;12.52;3.63;;;16.50;99.90;;;;;;5026465;28;20041;-34
2023/05/25 10:52:20;;;;;;;12.93;3.45;;;16.80;99.90;;;;;;5022816;28;20045;-34
2023/05/25 10:54:47;;;;;;;14.55;3.42;;;16.90;99.90;;;;;;5006924;28;20423;-34
2023/05/25 10:57:20;;;;;;;13.73;3.33;;;16.60;99.90;;;;;;5023996;28;20038;-34
2023/05/25 10:59:51;;;;;;;13.88;3.30;;;16.30;99.90;;;;;;5023461;28;20369;-34
2023/05/25 11:02:27;;;;;;;13.77;3.60;;;16.00;99.90;;;;;;5023368;28;20138;-34
2023/05/25 11:05:24;;;;;;;13.40;2.50;;;15.90;99.90;;;;;;5023659;28;20033;-34
2023/05/25 11:07:55;;;;;;;9.48;2.20;;;16.00;99.90;;;;;;5003188;28;20454;-34
2023/05/25 11:10:45;;;;;;;12.38;2.78;;;15.80;99.40;;;;;;5021864;28;20358;-34
2023/05/25 11:13:30;;;;;;;11.90;2.97;;;16.00;99.90;;;;;;5020941;28;20107;-34
2023/05/25 11:16:23;;;;;;;12.00;2.78;;;16.20;99.90;;;;;;5016314;28;20041;-34
2023/05/25 11:18:57;;;;;;;11.82;3.28;;;16.50;99.90;;;;;;5022785;28;20085;-34
2023/05/25 11:21:25;;;;;;;12.20;2.97;;;16.40;99.90;;;;;;5024028;28;20122;-34
2023/05/25 11:23:56;;;;;;;12.68;3.15;;;16.30;99.90;;;;;;5017613;28;20448;-34
2023/05/25 11:26:29;;;;;;;10.20;2.90;;;16.40;99.90;;;;;;5007421;28;20112;-34
2023/05/25 11:28:57;;;;;;;10.77;3.10;;;16.40;99.90;;;;;;5002648;28;20500;-34
2023/05/25 11:31:31;;;;;;;10.60;2.90;;;16.30;99.90;;;;;;5016710;28;20057;-34
2023/05/25 11:34:03;;;;;;;9.77;3.13;;;16.30;99.90;;;;;;5021792;28;20480;-34
2023/05/25 11:36:38;;;;;;;16.58;3.88;;;16.30;99.90;;;;;;5022438;28;20056;-34
2023/05/25 11:39:04;;;;;;;14.63;3.03;;;16.20;99.90;;;;;;5004827;28;20046;-34
2023/05/25 11:41:33;;;;;;;12.15;3.92;;;16.10;99.90;;;;;;5002520;28;20065;-34
2023/05/25 11:44:05;;;;;;;10.65;2.85;;;16.00;99.90;;;;;;5017650;28;20076;-34
2023/05/25 11:46:32;;;;;;;13.10;3.33;;;15.80;99.90;;;;;;5012877;28;20120;-34
2023/05/25 11:48:59;;;;;;;12.97;2.93;;;15.60;99.90;;;;;;5025032;28;20042;-34
2023/05/25 11:51:28;;;;;;;18.00;4.05;;;15.50;99.90;;;;;;5026163;28;20073;-34
2023/05/25 11:53:54;;;;;;;14.18;3.95;;;15.20;99.90;;;;;;5024690;28;20045;-34
2023/05/25 11:56:21;;;;;;;11.98;2.58;;;15.20;99.90;;;;;;5019218;28;20390;-34
2023/05/25 11:58:48;;;;;;;;;;;15.20;99.90;;;;;;5023638;28;20085;-34
2023/05/25 12:01:15;;;;;;;10.80;3.45;;;15.30;99.90;;;;;;5002887;28;19936;-34
2023/05/25 12:03:41;;;;;;;15.30;3.75;;;15.50;99.90;;;;;;5027263;28;20064;-34
2023/05/25 12:06:07;;;;;;;14.83;3.00;;;15.70;99.90;;;;;;5026173;28;20261;-34
2023/05/25 12:08:36;;;;;;;15.68;3.40;;;15.70;99.90;;;;;;5043013;28;20034;-34
2023/05/25 12:11:02;;;;;;;11.57;2.83;;;15.70;99.90;;;;;;5023226;28;20053;-34
2023/05/25 12:13:30;;;;;;;14.30;3.70;;;15.60;99.90;;;;;;5012112;28;20049;-34
2023/05/25 12:15:56;;;;;;;11.63;3.25;;;15.60;99.90;;;;;;5023427;28;20065;-34
2023/05/25 12:18:23;;;;;;;13.63;3.42;;;15.70;99.90;;;;;;5025406;28;20049;-34
2023/05/25 12:20:50;;;;;;;11.77;2.93;;;15.60;99.90;;;;;;5027481;28;20049;-34
2023/05/25 12:23:16;;;;;;;;;;;15.60;99.90;;;;;;5025194;28;20041;-34
2023/05/25 12:25:42;;;;;;;12.10;3.08;;;15.60;99.90;;;;;;5024463;28;19931;-34
2023/05/25 12:28:14;;;;;;;15.02;3.72;;;15.70;99.90;;;;;;5023174;28;20572;-34
2023/05/25 12:30:40;;;;;;;17.77;3.78;;;15.70;99.90;;;;;;5022016;28;20121;-35
2023/05/25 12:33:07;;;;;;;12.63;3.40;;;15.50;99.90;;;;;;5042790;28;20044;-34
2023/05/25 12:35:46;;;;;;;11.55;3.38;;;15.50;99.90;;;;;;5028077;28;20069;-35
2023/05/25 12:38:16;;;;;;;16.75;3.78;;;15.50;99.90;;;;;;5027537;28;20140;-34
2023/05/25 12:40:42;;;;;;;15.88;4.28;;;15.40;99.90;;;;;;5018269;28;20492;-34
2023/05/25 12:43:10;;;;;;;11.90;3.38;;;15.50;99.90;;;;;;5025665;28;20073;-34
2023/05/25 12:45:42;;;;;;;17.63;4.80;;;15.40;99.90;;;;;;5025811;28;20936;-34
2023/05/25 12:48:08;;;;;;;10.30;3.28;;;15.50;99.90;;;;;;5028019;28;20045;-34